createdAt,value
2022-09-04T11:28:36.196Z,450.00
2022-09-04T11:29:36.125Z,450.00
2022-09-04T11:30:36.119Z,461.25
2022-09-04T11:31:36.171Z,444.38
2022-09-04T11:37:20.814Z,343.13
2022-09-04T11:46:13.758Z,410.63
2022-09-04T11:47:13.714Z,405.00
2022-09-04T12:26:28.236Z,815.63
2022-09-04T12:27:28.178Z,883.13
2022-09-04T12:28:28.163Z,1006.88
2022-09-04T12:29:28.161Z,1631.25
2022-09-04T12:30:28.137Z,1462.50
2022-09-04T12:31:28.152Z,2536.88
2022-09-04T12:32:28.153Z,3341.25
2022-09-04T12:33:28.114Z,1884.38
2022-09-04T12:34:28.085Z,1513.13
2022-09-04T12:35:31.757Z,1119.38
2022-09-04T12:36:28.064Z,1693.13
2022-09-04T12:37:28.076Z,2328.75
2022-09-04T12:38:28.043Z,3015.00
2022-09-04T12:39:28.042Z,3110.63
2022-09-04T12:40:28.027Z,3363.75
2022-09-04T12:41:28.006Z,3065.63
2022-09-04T12:42:27.993Z,3037.50
2022-09-04T12:43:28.007Z,1873.13
2022-09-04T12:44:27.973Z,3121.88
2022-09-04T12:45:28.014Z,2238.75
2022-09-04T12:46:27.959Z,3133.13
2022-09-04T12:47:27.942Z,3363.75
2022-09-04T12:48:27.953Z,2053.13
2022-09-04T12:49:27.937Z,1974.38
2022-09-04T12:50:27.910Z,2964.38
2022-09-04T12:51:27.916Z,2570.63
2022-09-04T12:52:27.892Z,3240.00
2022-09-04T12:53:27.911Z,3015.00
2022-09-04T12:54:27.910Z,3093.75
2022-09-04T12:55:29.144Z,3071.25
2022-09-04T12:56:27.858Z,2328.75
2022-09-04T12:57:27.843Z,821.25
2022-09-04T12:58:27.841Z,810.00
2022-09-04T12:59:27.841Z,1597.50
2022-09-04T13:00:27.825Z,2739.38
2022-09-04T13:01:27.923Z,2756.25
2022-09-04T13:02:27.941Z,1366.88
2022-09-04T13:03:27.786Z,1276.88
2022-09-04T13:04:27.901Z,1451.25
2022-09-04T13:05:27.803Z,2216.25
2022-09-04T13:06:27.765Z,1063.13
2022-09-04T13:07:27.759Z,2986.88
2022-09-04T13:08:27.894Z,3245.63
2022-09-04T13:09:27.785Z,2418.75
2022-09-04T13:10:27.727Z,3178.13
2022-09-04T13:11:27.718Z,2874.38
2022-09-04T13:12:27.701Z,3324.38
2022-09-04T13:13:27.691Z,1777.50
2022-09-04T13:14:27.702Z,3183.75
2022-09-04T13:15:27.693Z,2418.75
2022-09-04T13:16:27.723Z,3155.63
2022-09-04T13:17:27.653Z,3166.88
2022-09-04T13:18:27.654Z,3099.38
2022-09-04T13:19:27.637Z,1501.88
2022-09-04T13:20:27.630Z,3048.75
2022-09-04T13:21:27.630Z,2587.50
2022-09-04T13:22:27.607Z,1794.38
2022-09-04T13:23:27.606Z,3088.13
2022-09-04T13:24:27.589Z,2452.50
2022-09-04T13:25:27.583Z,2778.75
2022-09-04T13:26:27.605Z,2801.25
2022-09-04T13:27:27.565Z,2891.25
2022-09-04T13:28:27.597Z,2598.75
2022-09-04T13:29:27.547Z,3015.00
2022-09-04T13:30:27.553Z,2868.75
2022-09-04T13:31:27.609Z,2418.75
2022-09-04T13:32:27.547Z,1968.75
2022-09-04T13:33:27.523Z,928.13
2022-09-04T13:34:27.516Z,2626.88
2022-09-04T13:35:27.506Z,2491.88
2022-09-04T13:36:27.523Z,2463.75
2022-09-04T13:43:32.066Z,1085.63
2022-09-04T13:44:32.053Z,1276.88
2022-09-04T13:45:32.044Z,1946.25
2022-09-04T13:46:32.088Z,2210.63
2022-09-04T13:47:33.039Z,2441.25
2022-09-04T13:48:32.030Z,2469.38
2022-09-04T13:49:32.005Z,2486.25
2022-09-04T13:50:31.995Z,2497.50
2022-09-04T13:51:31.978Z,1378.13
2022-09-04T13:52:31.980Z,855.00
2022-09-04T13:53:31.971Z,2418.75
2022-09-04T13:54:31.977Z,2463.75
2022-09-04T13:55:31.965Z,2430.00
2022-09-04T13:56:31.949Z,1563.75
2022-09-04T13:57:31.950Z,1513.13
2022-09-04T13:58:31.943Z,2120.63
2022-09-04T13:59:31.923Z,1164.38
2022-09-04T14:00:31.970Z,2300.63
2022-09-04T14:01:31.889Z,2323.13
2022-09-04T14:02:31.906Z,2227.50
2022-09-04T14:03:31.904Z,2244.38
2022-09-04T14:04:31.903Z,2244.38
2022-09-04T14:05:31.865Z,2176.88
2022-09-04T14:06:31.857Z,916.88
2022-09-04T14:07:31.871Z,1462.50
2022-09-04T14:08:31.880Z,753.75
2022-09-04T14:09:31.823Z,686.25
2022-09-04T14:10:31.826Z,663.75
2022-09-04T14:11:31.808Z,658.13
2022-09-04T14:12:31.810Z,849.38
2022-09-04T14:13:35.017Z,753.75
2022-09-04T14:14:31.782Z,1659.38
2022-09-04T14:15:31.775Z,725.63
2022-09-04T14:16:31.863Z,776.25
2022-09-04T14:17:31.765Z,1760.63
2022-09-04T14:18:31.767Z,1839.38
2022-09-04T14:19:31.748Z,1861.88
2022-09-04T14:20:31.742Z,1642.50
2022-09-04T14:21:31.733Z,1861.88
2022-09-04T14:22:33.440Z,1878.75
2022-09-04T14:23:31.810Z,1996.88
2022-09-04T14:24:31.714Z,2025.00
2022-09-04T14:25:31.691Z,2053.13
2022-09-04T14:26:31.690Z,2148.75
2022-09-04T14:27:31.678Z,2250.00
2022-09-04T14:28:31.679Z,2289.38
2022-09-04T14:29:31.657Z,2278.13
2022-09-04T14:30:31.676Z,2278.13
2022-09-04T14:31:32.691Z,2176.88
2022-09-04T14:32:31.646Z,2233.13
2022-09-04T14:33:35.567Z,2311.88
2022-09-04T14:34:31.623Z,2137.50
2022-09-04T14:35:31.625Z,1265.63
2022-09-04T14:36:31.610Z,1074.38
2022-09-04T14:37:31.612Z,1659.38
2022-09-04T14:38:31.610Z,2446.88
2022-09-04T14:39:31.627Z,2508.75
2022-09-04T14:40:31.585Z,2418.75
2022-09-04T14:41:36.022Z,2244.38
2022-09-04T14:42:31.596Z,2295.00
2022-09-04T14:43:31.587Z,1822.50
2022-09-04T14:44:31.569Z,1867.50
2022-09-04T14:45:31.551Z,2103.75
2022-09-04T14:46:31.587Z,2137.50
2022-09-04T14:47:31.541Z,2109.38
2022-09-04T14:48:31.548Z,2238.75
2022-09-04T14:49:31.527Z,2199.38
2022-09-04T14:50:31.531Z,2092.50
2022-09-04T14:51:31.527Z,2233.13
2022-09-04T14:52:31.509Z,2531.25
2022-09-04T14:53:31.515Z,2486.25
2022-09-04T14:54:31.507Z,2407.50
2022-09-04T14:55:31.490Z,2396.25
2022-09-04T14:56:31.485Z,2295.00
2022-09-04T14:57:31.480Z,2323.13
2022-09-04T14:58:31.485Z,2199.38
2022-09-04T14:59:31.475Z,2137.50
2022-09-04T15:00:31.464Z,2120.63
2022-09-04T15:01:31.528Z,2075.63
2022-09-04T15:02:31.463Z,2115.00
2022-09-04T15:03:31.493Z,1968.75
2022-09-04T15:04:34.031Z,2205.00
2022-09-04T15:05:31.436Z,2019.38
2022-09-04T15:06:32.490Z,2227.50
2022-09-04T15:07:31.431Z,2300.63
2022-09-04T15:08:31.433Z,2272.50
2022-09-04T15:09:31.419Z,2272.50
2022-09-04T15:10:31.444Z,2323.13
2022-09-04T15:11:31.925Z,2210.63
2022-09-04T15:12:31.400Z,1951.88
2022-09-04T15:13:31.418Z,1710.00
2022-09-04T15:14:31.391Z,1271.25
2022-09-04T15:15:31.387Z,1006.88
2022-09-04T15:16:31.437Z,759.38
2022-09-04T15:17:31.377Z,658.13
2022-09-04T15:18:31.389Z,613.13
2022-09-04T15:19:31.370Z,607.50
2022-09-04T15:20:31.364Z,585.00
2022-09-04T15:21:31.357Z,568.13
2022-09-04T15:22:31.361Z,573.75
2022-09-04T15:23:31.359Z,596.25
2022-09-04T15:24:31.340Z,618.75
2022-09-04T15:25:56.844Z,624.38
2022-09-04T15:26:31.327Z,630.00
2022-09-04T15:27:31.322Z,607.50
2022-09-04T15:28:31.340Z,601.88
2022-09-04T15:29:31.323Z,590.63
2022-09-04T15:30:33.558Z,562.50
2022-09-04T15:31:31.370Z,562.50
2022-09-04T15:32:31.289Z,551.25
2022-09-04T15:34:09.575Z,562.50
2022-09-04T15:35:09.557Z,601.88
2022-09-04T15:36:09.538Z,613.13
2022-09-04T15:37:09.526Z,618.75
2022-09-04T15:38:09.542Z,624.38
2022-09-04T15:39:09.510Z,618.75
2022-09-04T15:40:09.531Z,607.50
2022-09-04T15:41:17.561Z,585.00
2022-09-04T15:42:09.483Z,573.75
2022-09-04T15:43:09.487Z,579.38
2022-09-04T15:44:09.475Z,579.38
2022-09-04T15:45:09.871Z,573.75
2022-09-04T15:46:17.274Z,573.75
2022-09-04T15:47:09.441Z,579.38
2022-09-04T15:48:09.444Z,630.00
2022-09-04T15:49:09.431Z,832.50
2022-09-04T15:50:09.412Z,1203.75
2022-09-04T15:51:09.415Z,1558.13
2022-09-04T15:52:09.407Z,1518.75
2022-09-04T15:53:09.414Z,1051.88
2022-09-04T15:54:09.382Z,630.00
2022-09-04T15:55:09.366Z,596.25
2022-09-04T15:56:09.394Z,607.50
2022-09-04T15:57:09.360Z,1012.50
2022-09-04T15:58:09.359Z,1485.00
2022-09-04T16:03:48.762Z,1378.13
2022-09-04T16:04:48.752Z,1350.00
2022-09-04T16:05:48.743Z,1338.75
2022-09-04T16:06:48.727Z,1344.38
2022-09-04T16:07:49.510Z,1316.25
2022-09-04T16:08:48.716Z,1299.38
2022-09-04T16:09:48.698Z,1271.25
2022-09-04T16:10:48.688Z,1051.88
2022-09-04T16:11:48.688Z,832.50
2022-09-04T16:12:48.673Z,798.75
2022-09-04T16:13:48.676Z,697.50
2022-09-04T16:14:48.662Z,669.38
2022-09-04T16:15:48.692Z,613.13
2022-09-04T16:16:48.636Z,630.00
2022-09-04T16:17:48.629Z,804.38
2022-09-04T16:18:48.633Z,871.88
2022-09-04T16:19:48.618Z,838.13
2022-09-04T16:20:48.613Z,759.38
2022-09-04T16:21:48.602Z,725.63
2022-09-04T16:22:48.589Z,787.50
2022-09-04T16:23:48.592Z,770.63
2022-09-04T16:24:48.571Z,798.75
2022-09-04T16:25:48.561Z,849.38
2022-09-04T16:26:48.586Z,860.63
2022-09-04T16:27:48.552Z,849.38
2022-09-04T16:28:48.556Z,793.13
2022-09-04T16:29:48.533Z,703.13
2022-09-04T16:30:48.559Z,624.38
